sensor_id;sensor_type;location;lat;lon;timestamp;P1;durP1;ratioP1;P2;durP2;ratioP2
25437;SDS011;13364;49.084;9.978;2023-06-14T00:00:44;6.32;;;4.30;;
25437;SDS011;13364;49.084;9.978;2023-06-14T00:03:12;6.18;;;4.88;;
25437;SDS011;13364;49.084;9.978;2023-06-14T00:05:44;7.93;;;4.03;;
25437;SDS011;13364;49.084;9.978;2023-06-14T00:08:13;6.95;;;4.63;;
25437;SDS011;13364;49.084;9.978;2023-06-14T00:10:41;8.25;;;4.70;;
25437;SDS011;13364;49.084;9.978;2023-06-14T00:13:08;4.45;;;3.85;;
25437;SDS011;13364;49.084;9.978;2023-06-14T00:15:36;6.03;;;4.00;;
25437;SDS011;13364;49.084;9.978;2023-06-14T00:18:03;8.38;;;4.53;;
25437;SDS011;13364;49.084;9.978;2023-06-14T00:20:31;4.45;;;4.05;;
25437;SDS011;13364;49.084;9.978;2023-06-14T00:23:00;5.60;;;4.20;;
25437;SDS011;13364;49.084;9.978;2023-06-14T00:25:27;7.25;;;4.32;;
25437;SDS011;13364;49.084;9.978;2023-06-14T00:27:56;7.97;;;4.90;;
25437;SDS011;13364;49.084;9.978;2023-06-14T00:30:24;7.10;;;4.80;;
25437;SDS011;13364;49.084;9.978;2023-06-14T00:32:54;5.93;;;3.88;;
25437;SDS011;13364;49.084;9.978;2023-06-14T00:35:23;7.85;;;5.63;;
25437;SDS011;13364;49.084;9.978;2023-06-14T00:37:50;5.38;;;4.55;;
25437;SDS011;13364;49.084;9.978;2023-06-14T00:40:17;8.55;;;4.53;;
25437;SDS011;13364;49.084;9.978;2023-06-14T00:42:45;8.52;;;4.82;;
25437;SDS011;13364;49.084;9.978;2023-06-14T00:45:12;6.25;;;4.88;;
25437;SDS011;13364;49.084;9.978;2023-06-14T00:47:40;5.50;;;4.53;;
25437;SDS011;13364;49.084;9.978;2023-06-14T00:50:09;6.88;;;3.92;;
25437;SDS011;13364;49.084;9.978;2023-06-14T00:52:36;5.10;;;4.60;;
25437;SDS011;13364;49.084;9.978;2023-06-14T00:55:04;5.78;;;4.15;;
25437;SDS011;13364;49.084;9.978;2023-06-14T00:57:32;4.88;;;4.40;;
25437;SDS011;13364;49.084;9.978;2023-06-14T00:59:59;8.30;;;4.68;;
25437;SDS011;13364;49.084;9.978;2023-06-14T01:02:26;10.02;;;4.88;;
25437;SDS011;13364;49.084;9.978;2023-06-14T01:04:53;6.03;;;4.53;;
25437;SDS011;13364;49.084;9.978;2023-06-14T01:15:37;5.75;;;4.50;;
25437;SDS011;13364;49.084;9.978;2023-06-14T01:18:08;8.05;;;4.70;;
25437;SDS011;13364;49.084;9.978;2023-06-14T01:20:44;7.30;;;4.15;;
25437;SDS011;13364;49.084;9.978;2023-06-14T01:23:16;5.63;;;4.30;;
25437;SDS011;13364;49.084;9.978;2023-06-14T01:25:44;5.88;;;4.18;;
25437;SDS011;13364;49.084;9.978;2023-06-14T01:28:11;5.35;;;4.75;;
25437;SDS011;13364;49.084;9.978;2023-06-14T01:30:41;6.40;;;4.20;;
25437;SDS011;13364;49.084;9.978;2023-06-14T01:33:17;6.63;;;4.68;;
25437;SDS011;13364;49.084;9.978;2023-06-14T01:35:48;8.23;;;4.25;;
25437;SDS011;13364;49.084;9.978;2023-06-14T01:38:20;9.02;;;4.60;;
25437;SDS011;13364;49.084;9.978;2023-06-14T01:40:51;6.75;;;4.50;;
25437;SDS011;13364;49.084;9.978;2023-06-14T01:43:24;8.18;;;4.53;;
25437;SDS011;13364;49.084;9.978;2023-06-14T01:45:52;4.43;;;3.92;;
25437;SDS011;13364;49.084;9.978;2023-06-14T01:48:21;6.78;;;4.40;;
25437;SDS011;13364;49.084;9.978;2023-06-14T01:50:49;5.60;;;4.72;;
25437;SDS011;13364;49.084;9.978;2023-06-14T01:53:16;6.82;;;4.72;;
25437;SDS011;13364;49.084;9.978;2023-06-14T01:55:44;6.45;;;4.45;;
25437;SDS011;13364;49.084;9.978;2023-06-14T01:58:15;6.22;;;4.75;;
25437;SDS011;13364;49.084;9.978;2023-06-14T02:00:43;4.97;;;4.35;;
25437;SDS011;13364;49.084;9.978;2023-06-14T02:08:47;6.20;;;4.30;;
25437;SDS011;13364;49.084;9.978;2023-06-14T02:11:14;4.63;;;4.00;;
25437;SDS011;13364;49.084;9.978;2023-06-14T02:13:42;5.88;;;4.63;;
25437;SDS011;13364;49.084;9.978;2023-06-14T02:16:09;7.72;;;4.40;;
25437;SDS011;13364;49.084;9.978;2023-06-14T02:18:37;6.20;;;4.43;;
25437;SDS011;13364;49.084;9.978;2023-06-14T02:21:04;6.20;;;4.97;;
25437;SDS011;13364;49.084;9.978;2023-06-14T02:23:31;5.82;;;4.45;;
25437;SDS011;13364;49.084;9.978;2023-06-14T02:26:01;8.40;;;4.60;;
25437;SDS011;13364;49.084;9.978;2023-06-14T02:28:29;7.50;;;4.60;;
25437;SDS011;13364;49.084;9.978;2023-06-14T02:30:56;7.35;;;4.53;;
25437;SDS011;13364;49.084;9.978;2023-06-14T02:33:23;8.10;;;4.55;;
25437;SDS011;13364;49.084;9.978;2023-06-14T02:35:51;8.10;;;4.40;;
25437;SDS011;13364;49.084;9.978;2023-06-14T02:38:19;5.78;;;3.90;;
25437;SDS011;13364;49.084;9.978;2023-06-14T02:40:47;5.72;;;4.40;;
25437;SDS011;13364;49.084;9.978;2023-06-14T02:43:14;5.40;;;4.40;;
25437;SDS011;13364;49.084;9.978;2023-06-14T02:45:43;7.65;;;4.45;;
25437;SDS011;13364;49.084;9.978;2023-06-14T02:48:10;7.15;;;4.55;;
25437;SDS011;13364;49.084;9.978;2023-06-14T02:50:39;4.85;;;4.22;;
25437;SDS011;13364;49.084;9.978;2023-06-14T02:53:06;6.95;;;4.60;;
25437;SDS011;13364;49.084;9.978;2023-06-14T02:55:35;6.32;;;4.55;;
25437;SDS011;13364;49.084;9.978;2023-06-14T02:58:07;5.80;;;4.47;;
25437;SDS011;13364;49.084;9.978;2023-06-14T03:00:34;7.40;;;4.35;;
25437;SDS011;13364;49.084;9.978;2023-06-14T03:03:03;6.25;;;4.70;;
25437;SDS011;13364;49.084;9.978;2023-06-14T03:05:41;5.43;;;4.30;;
25437;SDS011;13364;49.084;9.978;2023-06-14T03:08:20;6.68;;;4.65;;
25437;SDS011;13364;49.084;9.978;2023-06-14T03:10:51;6.40;;;4.18;;
25437;SDS011;13364;49.084;9.978;2023-06-14T03:13:19;5.68;;;4.45;;
25437;SDS011;13364;49.084;9.978;2023-06-14T03:15:49;5.45;;;4.05;;
25437;SDS011;13364;49.084;9.978;2023-06-14T03:18:18;7.10;;;4.65;;
25437;SDS011;13364;49.084;9.978;2023-06-14T03:20:45;6.38;;;4.90;;
25437;SDS011;13364;49.084;9.978;2023-06-14T03:23:13;5.85;;;4.72;;
25437;SDS011;13364;49.084;9.978;2023-06-14T03:25:40;11.43;;;5.55;;
25437;SDS011;13364;49.084;9.978;2023-06-14T03:28:10;9.27;;;5.07;;
25437;SDS011;13364;49.084;9.978;2023-06-14T03:30:38;7.95;;;4.95;;
25437;SDS011;13364;49.084;9.978;2023-06-14T03:33:05;5.45;;;4.82;;
25437;SDS011;13364;49.084;9.978;2023-06-14T03:35:36;9.18;;;5.07;;
25437;SDS011;13364;49.084;9.978;2023-06-14T03:38:04;9.27;;;5.35;;
25437;SDS011;13364;49.084;9.978;2023-06-14T03:40:31;6.45;;;4.82;;
25437;SDS011;13364;49.084;9.978;2023-06-14T03:43:01;7.80;;;5.45;;
25437;SDS011;13364;49.084;9.978;2023-06-14T03:45:29;5.93;;;5.03;;
25437;SDS011;13364;49.084;9.978;2023-06-14T03:47:57;6.85;;;4.25;;
25437;SDS011;13364;49.084;9.978;2023-06-14T03:50:26;9.07;;;5.38;;
25437;SDS011;13364;49.084;9.978;2023-06-14T03:52:54;9.13;;;5.35;;
25437;SDS011;13364;49.084;9.978;2023-06-14T03:55:21;8.27;;;5.03;;
25437;SDS011;13364;49.084;9.978;2023-06-14T03:57:54;7.90;;;4.97;;
25437;SDS011;13364;49.084;9.978;2023-06-14T04:00:21;7.68;;;5.05;;
25437;SDS011;13364;49.084;9.978;2023-06-14T04:02:49;7.82;;;5.22;;
25437;SDS011;13364;49.084;9.978;2023-06-14T04:05:17;10.65;;;5.70;;
25437;SDS011;13364;49.084;9.978;2023-06-14T04:07:48;7.53;;;5.28;;
25437;SDS011;13364;49.084;9.978;2023-06-14T04:10:17;8.23;;;6.03;;
25437;SDS011;13364;49.084;9.978;2023-06-14T04:12:44;9.68;;;5.93;;
25437;SDS011;13364;49.084;9.978;2023-06-14T04:15:11;6.55;;;5.35;;
25437;SDS011;13364;49.084;9.978;2023-06-14T04:17:46;8.68;;;5.35;;
25437;SDS011;13364;49.084;9.978;2023-06-14T04:20:15;8.93;;;5.82;;
25437;SDS011;13364;49.084;9.978;2023-06-14T04:22:43;7.80;;;5.22;;
25437;SDS011;13364;49.084;9.978;2023-06-14T04:25:11;7.45;;;5.07;;
25437;SDS011;13364;49.084;9.978;2023-06-14T04:27:40;7.47;;;5.75;;
25437;SDS011;13364;49.084;9.978;2023-06-14T04:30:09;6.50;;;5.43;;
25437;SDS011;13364;49.084;9.978;2023-06-14T04:32:44;12.20;;;5.70;;
25437;SDS011;13364;49.084;9.978;2023-06-14T04:35:12;6.13;;;5.13;;
25437;SDS011;13364;49.084;9.978;2023-06-14T04:37:43;11.07;;;5.55;;
25437;SDS011;13364;49.084;9.978;2023-06-14T04:40:12;7.72;;;5.85;;
25437;SDS011;13364;49.084;9.978;2023-06-14T04:42:40;7.05;;;5.55;;
25437;SDS011;13364;49.084;9.978;2023-06-14T04:45:13;6.95;;;5.72;;
25437;SDS011;13364;49.084;9.978;2023-06-14T04:47:43;8.70;;;6.03;;
25437;SDS011;13364;49.084;9.978;2023-06-14T04:50:10;5.95;;;5.35;;
25437;SDS011;13364;49.084;9.978;2023-06-14T04:52:39;8.52;;;6.65;;
25437;SDS011;13364;49.084;9.978;2023-06-14T04:55:08;11.85;;;5.82;;
25437;SDS011;13364;49.084;9.978;2023-06-14T04:57:36;7.78;;;6.07;;
25437;SDS011;13364;49.084;9.978;2023-06-14T05:00:05;9.93;;;6.15;;
25437;SDS011;13364;49.084;9.978;2023-06-14T05:02:33;8.38;;;6.30;;
25437;SDS011;13364;49.084;9.978;2023-06-14T05:05:02;9.55;;;6.25;;
25437;SDS011;13364;49.084;9.978;2023-06-14T05:07:32;11.35;;;6.25;;
25437;SDS011;13364;49.084;9.978;2023-06-14T05:10:00;7.95;;;5.78;;
25437;SDS011;13364;49.084;9.978;2023-06-14T05:12:28;11.30;;;6.28;;
25437;SDS011;13364;49.084;9.978;2023-06-14T05:17:55;8.27;;;6.13;;
25437;SDS011;13364;49.084;9.978;2023-06-14T05:23:15;8.63;;;6.30;;
25437;SDS011;13364;49.084;9.978;2023-06-14T05:25:43;10.50;;;6.10;;
25437;SDS011;13364;49.084;9.978;2023-06-14T05:28:10;8.18;;;6.15;;
25437;SDS011;13364;49.084;9.978;2023-06-14T05:30:38;7.10;;;6.40;;
25437;SDS011;13364;49.084;9.978;2023-06-14T05:33:06;8.02;;;6.22;;
25437;SDS011;13364;49.084;9.978;2023-06-14T05:35:33;9.35;;;6.65;;
25437;SDS011;13364;49.084;9.978;2023-06-14T05:38:00;11.90;;;7.30;;
25437;SDS011;13364;49.084;9.978;2023-06-14T05:43:21;9.82;;;6.10;;
25437;SDS011;13364;49.084;9.978;2023-06-14T05:45:49;8.90;;;7.05;;
25437;SDS011;13364;49.084;9.978;2023-06-14T05:48:16;19.23;;;7.22;;
25437;SDS011;13364;49.084;9.978;2023-06-14T05:50:43;10.05;;;7.15;;
25437;SDS011;13364;49.084;9.978;2023-06-14T05:53:10;7.45;;;6.60;;
25437;SDS011;13364;49.084;9.978;2023-06-14T05:55:37;8.80;;;6.95;;
25437;SDS011;13364;49.084;9.978;2023-06-14T05:58:07;9.82;;;6.68;;
25437;SDS011;13364;49.084;9.978;2023-06-14T06:00:34;8.77;;;6.30;;
25437;SDS011;13364;49.084;9.978;2023-06-14T06:03:02;15.00;;;7.30;;
25437;SDS011;13364;49.084;9.978;2023-06-14T06:05:29;8.68;;;5.82;;
25437;SDS011;13364;49.084;9.978;2023-06-14T06:07:56;7.38;;;5.70;;
25437;SDS011;13364;49.084;9.978;2023-06-14T06:10:23;8.63;;;6.00;;
25437;SDS011;13364;49.084;9.978;2023-06-14T06:12:50;6.00;;;5.40;;
25437;SDS011;13364;49.084;9.978;2023-06-14T06:15:18;7.55;;;5.85;;
25437;SDS011;13364;49.084;9.978;2023-06-14T06:17:46;8.80;;;5.60;;
25437;SDS011;13364;49.084;9.978;2023-06-14T06:20:22;7.10;;;5.03;;
25437;SDS011;13364;49.084;9.978;2023-06-14T06:22:55;8.35;;;5.30;;
25437;SDS011;13364;49.084;9.978;2023-06-14T06:25:25;6.53;;;4.93;;
25437;SDS011;13364;49.084;9.978;2023-06-14T06:27:53;5.05;;;4.53;;
25437;SDS011;13364;49.084;9.978;2023-06-14T06:30:22;6.95;;;5.13;;
25437;SDS011;13364;49.084;9.978;2023-06-14T06:32:49;7.45;;;5.05;;
25437;SDS011;13364;49.084;9.978;2023-06-14T06:35:17;5.95;;;5.15;;
25437;SDS011;13364;49.084;9.978;2023-06-14T06:37:44;7.30;;;4.88;;
25437;SDS011;13364;49.084;9.978;2023-06-14T06:43:11;6.20;;;4.97;;
25437;SDS011;13364;49.084;9.978;2023-06-14T06:45:44;10.18;;;5.20;;
25437;SDS011;13364;49.084;9.978;2023-06-14T06:48:11;6.60;;;4.70;;
25437;SDS011;13364;49.084;9.978;2023-06-14T06:50:38;8.20;;;4.72;;
25437;SDS011;13364;49.084;9.978;2023-06-14T06:53:05;5.68;;;4.90;;
25437;SDS011;13364;49.084;9.978;2023-06-14T06:55:33;9.05;;;5.10;;
25437;SDS011;13364;49.084;9.978;2023-06-14T06:58:00;8.27;;;4.75;;
25437;SDS011;13364;49.084;9.978;2023-06-14T07:00:27;5.28;;;4.18;;
25437;SDS011;13364;49.084;9.978;2023-06-14T07:02:54;8.98;;;5.13;;
25437;SDS011;13364;49.084;9.978;2023-06-14T07:05:22;6.68;;;5.18;;
25437;SDS011;13364;49.084;9.978;2023-06-14T07:07:49;4.72;;;4.20;;
25437;SDS011;13364;49.084;9.978;2023-06-14T07:10:16;4.90;;;4.40;;
25437;SDS011;13364;49.084;9.978;2023-06-14T07:12:44;5.63;;;4.93;;
25437;SDS011;13364;49.084;9.978;2023-06-14T07:15:11;6.35;;;4.78;;
25437;SDS011;13364;49.084;9.978;2023-06-14T07:17:39;7.38;;;5.22;;
25437;SDS011;13364;49.084;9.978;2023-06-14T07:20:08;6.20;;;4.80;;
25437;SDS011;13364;49.084;9.978;2023-06-14T07:22:40;8.82;;;5.20;;
25437;SDS011;13364;49.084;9.978;2023-06-14T07:25:09;5.37;;;4.27;;
25437;SDS011;13364;49.084;9.978;2023-06-14T07:27:40;6.47;;;4.75;;
25437;SDS011;13364;49.084;9.978;2023-06-14T07:30:08;7.72;;;4.72;;
25437;SDS011;13364;49.084;9.978;2023-06-14T07:32:36;7.72;;;4.80;;
25437;SDS011;13364;49.084;9.978;2023-06-14T07:35:03;8.07;;;4.95;;
25437;SDS011;13364;49.084;9.978;2023-06-14T07:37:31;6.85;;;4.82;;
25437;SDS011;13364;49.084;9.978;2023-06-14T07:39:58;5.53;;;4.72;;
25437;SDS011;13364;49.084;9.978;2023-06-14T07:42:25;9.32;;;5.20;;
25437;SDS011;13364;49.084;9.978;2023-06-14T07:44:52;7.50;;;5.00;;
25437;SDS011;13364;49.084;9.978;2023-06-14T07:47:20;5.80;;;4.85;;
25437;SDS011;13364;49.084;9.978;2023-06-14T07:49:47;6.45;;;4.57;;
25437;SDS011;13364;49.084;9.978;2023-06-14T07:52:14;6.22;;;5.30;;
25437;SDS011;13364;49.084;9.978;2023-06-14T07:54:41;8.18;;;4.40;;
25437;SDS011;13364;49.084;9.978;2023-06-14T07:57:08;7.82;;;4.95;;
25437;SDS011;13364;49.084;9.978;2023-06-14T07:59:35;7.85;;;5.10;;
25437;SDS011;13364;49.084;9.978;2023-06-14T08:02:03;5.13;;;4.40;;
25437;SDS011;13364;49.084;9.978;2023-06-14T08:04:31;5.18;;;4.43;;
25437;SDS011;13364;49.084;9.978;2023-06-14T08:06:59;5.90;;;4.63;;
25437;SDS011;13364;49.084;9.978;2023-06-14T08:09:27;6.78;;;4.68;;
25437;SDS011;13364;49.084;9.978;2023-06-14T08:11:55;6.28;;;5.18;;
25437;SDS011;13364;49.084;9.978;2023-06-14T08:14:22;7.05;;;4.32;;
25437;SDS011;13364;49.084;9.978;2023-06-14T08:16:50;5.88;;;4.97;;
25437;SDS011;13364;49.084;9.978;2023-06-14T08:19:17;7.72;;;4.85;;
25437;SDS011;13364;49.084;9.978;2023-06-14T08:21:44;5.95;;;4.82;;
25437;SDS011;13364;49.084;9.978;2023-06-14T08:24:12;5.97;;;3.95;;
25437;SDS011;13364;49.084;9.978;2023-06-14T08:26:40;5.25;;;4.15;;
25437;SDS011;13364;49.084;9.978;2023-06-14T08:29:07;6.53;;;4.65;;
25437;SDS011;13364;49.084;9.978;2023-06-14T08:31:34;5.40;;;4.38;;
25437;SDS011;13364;49.084;9.978;2023-06-14T08:34:01;5.70;;;4.82;;
25437;SDS011;13364;49.084;9.978;2023-06-14T08:36:32;8.32;;;4.80;;
25437;SDS011;13364;49.084;9.978;2023-06-14T08:38:59;9.15;;;4.50;;
25437;SDS011;13364;49.084;9.978;2023-06-14T08:41:26;6.60;;;4.55;;
25437;SDS011;13364;49.084;9.978;2023-06-14T08:43:56;9.00;;;5.03;;
25437;SDS011;13364;49.084;9.978;2023-06-14T08:46:24;5.18;;;4.60;;
25437;SDS011;13364;49.084;9.978;2023-06-14T08:48:55;6.82;;;4.95;;
25437;SDS011;13364;49.084;9.978;2023-06-14T08:51:23;4.93;;;4.43;;
25437;SDS011;13364;49.084;9.978;2023-06-14T08:53:54;5.97;;;4.43;;
25437;SDS011;13364;49.084;9.978;2023-06-14T08:56:25;9.45;;;6.03;;
25437;SDS011;13364;49.084;9.978;2023-06-14T09:01:23;16.13;;;10.00;;
25437;SDS011;13364;49.084;9.978;2023-06-14T09:03:50;7.00;;;4.93;;
25437;SDS011;13364;49.084;9.978;2023-06-14T09:06:18;5.32;;;4.47;;
25437;SDS011;13364;49.084;9.978;2023-06-14T09:08:49;5.80;;;4.35;;
25437;SDS011;13364;49.084;9.978;2023-06-14T09:11:17;4.38;;;3.97;;
25437;SDS011;13364;49.084;9.978;2023-06-14T09:13:46;7.18;;;4.30;;
25437;SDS011;13364;49.084;9.978;2023-06-14T09:16:13;5.10;;;4.57;;
25437;SDS011;13364;49.084;9.978;2023-06-14T09:18:42;6.72;;;4.35;;
25437;SDS011;13364;49.084;9.978;2023-06-14T09:21:11;4.85;;;4.30;;
25437;SDS011;13364;49.084;9.978;2023-06-14T09:23:39;4.15;;;3.75;;
25437;SDS011;13364;49.084;9.978;2023-06-14T09:28:45;7.10;;;4.90;;
25437;SDS011;13364;49.084;9.978;2023-06-14T09:31:17;5.35;;;4.00;;
25437;SDS011;13364;49.084;9.978;2023-06-14T09:33:49;8.27;;;4.10;;
25437;SDS011;13364;49.084;9.978;2023-06-14T09:36:17;6.55;;;4.55;;
25437;SDS011;13364;49.084;9.978;2023-06-14T09:39:00;5.72;;;4.57;;
25437;SDS011;13364;49.084;9.978;2023-06-14T09:41:39;8.40;;;4.60;;
25437;SDS011;13364;49.084;9.978;2023-06-14T09:44:09;6.50;;;4.45;;
25437;SDS011;13364;49.084;9.978;2023-06-14T09:46:45;5.68;;;4.40;;
25437;SDS011;13364;49.084;9.978;2023-06-14T09:49:12;6.07;;;4.65;;
25437;SDS011;13364;49.084;9.978;2023-06-14T09:51:43;5.57;;;4.30;;
25437;SDS011;13364;49.084;9.978;2023-06-14T09:54:14;6.25;;;4.80;;
25437;SDS011;13364;49.084;9.978;2023-06-14T09:56:46;4.72;;;4.18;;
25437;SDS011;13364;49.084;9.978;2023-06-14T09:59:16;4.57;;;4.10;;
25437;SDS011;13364;49.084;9.978;2023-06-14T10:01:47;8.25;;;4.88;;
25437;SDS011;13364;49.084;9.978;2023-06-14T10:04:15;14.75;;;5.43;;
25437;SDS011;13364;49.084;9.978;2023-06-14T10:06:47;5.88;;;4.03;;
25437;SDS011;13364;49.084;9.978;2023-06-14T10:09:15;4.72;;;3.95;;
25437;SDS011;13364;49.084;9.978;2023-06-14T10:11:43;9.10;;;4.05;;
25437;SDS011;13364;49.084;9.978;2023-06-14T10:14:11;4.13;;;3.72;;
25437;SDS011;13364;49.084;9.978;2023-06-14T10:19:16;5.10;;;4.25;;
25437;SDS011;13364;49.084;9.978;2023-06-14T10:22:02;5.10;;;4.10;;
25437;SDS011;13364;49.084;9.978;2023-06-14T10:24:38;5.70;;;4.38;;
25437;SDS011;13364;49.084;9.978;2023-06-14T10:27:08;4.93;;;3.78;;
25437;SDS011;13364;49.084;9.978;2023-06-14T10:30:01;5.35;;;4.03;;
25437;SDS011;13364;49.084;9.978;2023-06-14T10:32:25;5.72;;;3.88;;
25437;SDS011;13364;49.084;9.978;2023-06-14T10:37:30;8.55;;;3.95;;
25437;SDS011;13364;49.084;9.978;2023-06-14T10:39:58;5.90;;;3.72;;
25437;SDS011;13364;49.084;9.978;2023-06-14T10:42:31;4.07;;;3.63;;
25437;SDS011;13364;49.084;9.978;2023-06-14T10:44:59;6.80;;;3.88;;
25437;SDS011;13364;49.084;9.978;2023-06-14T10:47:31;4.97;;;4.38;;
25437;SDS011;13364;49.084;9.978;2023-06-14T10:52:29;5.45;;;3.83;;
25437;SDS011;13364;49.084;9.978;2023-06-14T10:55:06;4.50;;;3.50;;
25437;SDS011;13364;49.084;9.978;2023-06-14T10:57:43;5.40;;;3.78;;
25437;SDS011;13364;49.084;9.978;2023-06-14T11:00:15;5.10;;;3.90;;
25437;SDS011;13364;49.084;9.978;2023-06-14T11:05:30;8.20;;;4.30;;
25437;SDS011;13364;49.084;9.978;2023-06-14T11:11:00;5.38;;;4.30;;
25437;SDS011;13364;49.084;9.978;2023-06-14T11:13:28;6.25;;;3.85;;
25437;SDS011;13364;49.084;9.978;2023-06-14T11:15:57;7.73;;;3.77;;
25437;SDS011;13364;49.084;9.978;2023-06-14T11:18:25;5.72;;;3.70;;
25437;SDS011;13364;49.084;9.978;2023-06-14T11:20:54;4.88;;;3.83;;
25437;SDS011;13364;49.084;9.978;2023-06-14T11:23:21;5.45;;;4.30;;
25437;SDS011;13364;49.084;9.978;2023-06-14T11:25:50;4.38;;;3.97;;
25437;SDS011;13364;49.084;9.978;2023-06-14T11:28:18;4.47;;;4.07;;
25437;SDS011;13364;49.084;9.978;2023-06-14T11:30:48;5.22;;;3.70;;
25437;SDS011;13364;49.084;9.978;2023-06-14T11:33:26;7.25;;;3.75;;
25437;SDS011;13364;49.084;9.978;2023-06-14T11:35:53;5.30;;;3.95;;
25437;SDS011;13364;49.084;9.978;2023-06-14T11:38:20;7.15;;;3.45;;
25437;SDS011;13364;49.084;9.978;2023-06-14T11:40:48;10.15;;;4.05;;
25437;SDS011;13364;49.084;9.978;2023-06-14T11:43:15;5.13;;;3.85;;
25437;SDS011;13364;49.084;9.978;2023-06-14T11:45:43;4.90;;;4.13;;
25437;SDS011;13364;49.084;9.978;2023-06-14T11:48:22;5.93;;;3.72;;
25437;SDS011;13364;49.084;9.978;2023-06-14T11:50:49;4.63;;;3.45;;
25437;SDS011;13364;49.084;9.978;2023-06-14T11:53:17;4.68;;;4.22;;
25437;SDS011;13364;49.084;9.978;2023-06-14T11:55:44;8.85;;;4.03;;
25437;SDS011;13364;49.084;9.978;2023-06-14T11:58:14;5.05;;;3.75;;
25437;SDS011;13364;49.084;9.978;2023-06-14T12:00:41;4.70;;;3.67;;
25437;SDS011;13364;49.084;9.978;2023-06-14T12:03:08;3.83;;;3.53;;
25437;SDS011;13364;49.084;9.978;2023-06-14T12:05:36;5.82;;;3.40;;
25437;SDS011;13364;49.084;9.978;2023-06-14T12:08:03;5.25;;;3.80;;
25437;SDS011;13364;49.084;9.978;2023-06-14T12:13:37;3.92;;;3.47;;
25437;SDS011;13364;49.084;9.978;2023-06-14T12:16:09;5.07;;;3.47;;
25437;SDS011;13364;49.084;9.978;2023-06-14T12:18:38;5.38;;;4.38;;
25437;SDS011;13364;49.084;9.978;2023-06-14T12:21:08;5.57;;;4.00;;
25437;SDS011;13364;49.084;9.978;2023-06-14T12:26:19;3.78;;;3.47;;
25437;SDS011;13364;49.084;9.978;2023-06-14T12:28:47;5.93;;;3.38;;
25437;SDS011;13364;49.084;9.978;2023-06-14T12:31:15;5.20;;;3.60;;
25437;SDS011;13364;49.084;9.978;2023-06-14T12:33:43;4.38;;;3.60;;
25437;SDS011;13364;49.084;9.978;2023-06-14T12:36:12;6.10;;;3.60;;
25437;SDS011;13364;49.084;9.978;2023-06-14T12:38:40;6.38;;;3.88;;
25437;SDS011;13364;49.084;9.978;2023-06-14T12:41:08;4.63;;;4.00;;
25437;SDS011;13364;49.084;9.978;2023-06-14T12:43:35;4.90;;;3.92;;
25437;SDS011;13364;49.084;9.978;2023-06-14T12:46:02;4.57;;;3.17;;
25437;SDS011;13364;49.084;9.978;2023-06-14T12:48:29;6.30;;;3.97;;
25437;SDS011;13364;49.084;9.978;2023-06-14T12:50:57;3.95;;;3.25;;
25437;SDS011;13364;49.084;9.978;2023-06-14T12:53:25;4.78;;;3.70;;
25437;SDS011;13364;49.084;9.978;2023-06-14T12:55:52;5.70;;;3.97;;
25437;SDS011;13364;49.084;9.978;2023-06-14T12:58:19;5.03;;;3.38;;
25437;SDS011;13364;49.084;9.978;2023-06-14T13:00:47;5.05;;;3.53;;
25437;SDS011;13364;49.084;9.978;2023-06-14T13:03:14;4.88;;;3.40;;
25437;SDS011;13364;49.084;9.978;2023-06-14T13:05:42;6.40;;;3.85;;
25437;SDS011;13364;49.084;9.978;2023-06-14T13:08:09;4.03;;;3.60;;
25437;SDS011;13364;49.084;9.978;2023-06-14T13:10:37;4.75;;;3.40;;
25437;SDS011;13364;49.084;9.978;2023-06-14T13:13:04;4.97;;;3.80;;
25437;SDS011;13364;49.084;9.978;2023-06-14T13:15:33;5.45;;;4.10;;
25437;SDS011;13364;49.084;9.978;2023-06-14T13:18:01;6.78;;;4.05;;
25437;SDS011;13364;49.084;9.978;2023-06-14T13:20:29;4.53;;;3.58;;
25437;SDS011;13364;49.084;9.978;2023-06-14T13:22:58;3.78;;;3.47;;
25437;SDS011;13364;49.084;9.978;2023-06-14T13:25:25;3.72;;;3.40;;
25437;SDS011;13364;49.084;9.978;2023-06-14T13:27:52;5.45;;;3.88;;
25437;SDS011;13364;49.084;9.978;2023-06-14T13:30:20;3.67;;;3.38;;
25437;SDS011;13364;49.084;9.978;2023-06-14T13:32:47;4.40;;;3.63;;
25437;SDS011;13364;49.084;9.978;2023-06-14T13:35:16;6.65;;;4.13;;
25437;SDS011;13364;49.084;9.978;2023-06-14T13:37:43;6.53;;;3.40;;
25437;SDS011;13364;49.084;9.978;2023-06-14T13:40:11;4.32;;;3.30;;
25437;SDS011;13364;49.084;9.978;2023-06-14T13:42:39;5.88;;;3.58;;
25437;SDS011;13364;49.084;9.978;2023-06-14T13:45:07;5.63;;;3.40;;
25437;SDS011;13364;49.084;9.978;2023-06-14T13:47:35;5.28;;;3.85;;
25437;SDS011;13364;49.084;9.978;2023-06-14T13:50:02;4.88;;;3.35;;
25437;SDS011;13364;49.084;9.978;2023-06-14T13:52:30;3.42;;;3.13;;
25437;SDS011;13364;49.084;9.978;2023-06-14T13:54:57;5.45;;;3.92;;
25437;SDS011;13364;49.084;9.978;2023-06-14T13:57:25;6.72;;;3.60;;
25437;SDS011;13364;49.084;9.978;2023-06-14T13:59:52;4.30;;;3.38;;
25437;SDS011;13364;49.084;9.978;2023-06-14T14:02:37;4.57;;;3.50;;
25437;SDS011;13364;49.084;9.978;2023-06-14T14:05:06;5.68;;;3.92;;
25437;SDS011;13364;49.084;9.978;2023-06-14T14:10:37;3.72;;;3.40;;
25437;SDS011;13364;49.084;9.978;2023-06-14T14:13:04;4.45;;;3.40;;
25437;SDS011;13364;49.084;9.978;2023-06-14T14:15:31;4.68;;;3.78;;
25437;SDS011;13364;49.084;9.978;2023-06-14T14:18:01;5.53;;;3.85;;
25437;SDS011;13364;49.084;9.978;2023-06-14T14:20:30;4.60;;;4.20;;
25437;SDS011;13364;49.084;9.978;2023-06-14T14:22:57;5.03;;;3.40;;
25437;SDS011;13364;49.084;9.978;2023-06-14T14:25:24;4.75;;;3.88;;
25437;SDS011;13364;49.084;9.978;2023-06-14T14:27:52;3.88;;;3.47;;
25437;SDS011;13364;49.084;9.978;2023-06-14T14:30:19;4.90;;;3.58;;
25437;SDS011;13364;49.084;9.978;2023-06-14T14:32:50;4.15;;;3.75;;
25437;SDS011;13364;49.084;9.978;2023-06-14T14:35:18;5.28;;;3.90;;
25437;SDS011;13364;49.084;9.978;2023-06-14T14:37:45;3.90;;;3.50;;
25437;SDS011;13364;49.084;9.978;2023-06-14T14:40:12;4.43;;;3.70;;
25437;SDS011;13364;49.084;9.978;2023-06-14T14:42:40;5.63;;;3.70;;
25437;SDS011;13364;49.084;9.978;2023-06-14T14:45:07;4.95;;;3.88;;
25437;SDS011;13364;49.084;9.978;2023-06-14T14:47:34;4.30;;;3.78;;
25437;SDS011;13364;49.084;9.978;2023-06-14T14:50:01;3.72;;;3.42;;
25437;SDS011;13364;49.084;9.978;2023-06-14T14:52:30;4.68;;;3.50;;
25437;SDS011;13364;49.084;9.978;2023-06-14T14:54:57;6.82;;;3.55;;
25437;SDS011;13364;49.084;9.978;2023-06-14T14:57:25;8.75;;;3.42;;
25437;SDS011;13364;49.084;9.978;2023-06-14T14:59:52;3.92;;;3.50;;
25437;SDS011;13364;49.084;9.978;2023-06-14T15:02:19;4.25;;;3.40;;
25437;SDS011;13364;49.084;9.978;2023-06-14T15:04:46;4.90;;;3.35;;
25437;SDS011;13364;49.084;9.978;2023-06-14T15:07:31;6.35;;;3.70;;
25437;SDS011;13364;49.084;9.978;2023-06-14T15:10:00;7.90;;;3.75;;
25437;SDS011;13364;49.084;9.978;2023-06-14T15:12:27;5.85;;;4.00;;
25437;SDS011;13364;49.084;9.978;2023-06-14T15:14:56;4.20;;;3.80;;
25437;SDS011;13364;49.084;9.978;2023-06-14T15:17:23;5.13;;;3.97;;
25437;SDS011;13364;49.084;9.978;2023-06-14T15:19:51;4.90;;;3.63;;
25437;SDS011;13364;49.084;9.978;2023-06-14T15:22:19;5.53;;;3.55;;
25437;SDS011;13364;49.084;9.978;2023-06-14T15:24:46;4.43;;;3.92;;
25437;SDS011;13364;49.084;9.978;2023-06-14T15:27:16;4.78;;;3.58;;
25437;SDS011;13364;49.084;9.978;2023-06-14T15:29:43;6.07;;;4.25;;
25437;SDS011;13364;49.084;9.978;2023-06-14T15:32:12;5.03;;;3.75;;
25437;SDS011;13364;49.084;9.978;2023-06-14T15:34:41;6.05;;;3.58;;
25437;SDS011;13364;49.084;9.978;2023-06-14T15:37:23;8.18;;;3.75;;
25437;SDS011;13364;49.084;9.978;2023-06-14T15:39:50;9.50;;;4.00;;
25437;SDS011;13364;49.084;9.978;2023-06-14T15:42:17;6.75;;;4.03;;
25437;SDS011;13364;49.084;9.978;2023-06-14T15:44:45;6.13;;;3.80;;
25437;SDS011;13364;49.084;9.978;2023-06-14T15:47:13;4.32;;;3.92;;
25437;SDS011;13364;49.084;9.978;2023-06-14T15:49:41;5.88;;;4.22;;